sensor_id;sensor_type;location;lat;lon;timestamp;P1;durP1;ratioP1;P2;durP2;ratioP2
12288;SDS011;6207;49.308;7.336;2023-04-08T00:00:26;13.57;;;9.73;;
12288;SDS011;6207;49.308;7.336;2023-04-08T00:02:52;17.53;;;10.30;;
12288;SDS011;6207;49.308;7.336;2023-04-08T00:05:19;16.33;;;9.60;;
12288;SDS011;6207;49.308;7.336;2023-04-08T00:07:46;14.70;;;9.27;;
12288;SDS011;6207;49.308;7.336;2023-04-08T00:10:12;14.83;;;9.53;;
12288;SDS011;6207;49.308;7.336;2023-04-08T00:12:39;16.73;;;10.50;;
12288;SDS011;6207;49.308;7.336;2023-04-08T00:15:06;14.17;;;9.03;;
12288;SDS011;6207;49.308;7.336;2023-04-08T00:17:33;14.70;;;10.90;;
12288;SDS011;6207;49.308;7.336;2023-04-08T00:20:00;19.43;;;10.47;;
12288;SDS011;6207;49.308;7.336;2023-04-08T00:22:26;19.70;;;11.07;;
12288;SDS011;6207;49.308;7.336;2023-04-08T00:24:53;18.47;;;11.10;;
12288;SDS011;6207;49.308;7.336;2023-04-08T00:27:20;17.67;;;11.93;;
12288;SDS011;6207;49.308;7.336;2023-04-08T00:29:46;16.47;;;10.70;;
12288;SDS011;6207;49.308;7.336;2023-04-08T00:32:13;16.03;;;9.87;;
12288;SDS011;6207;49.308;7.336;2023-04-08T00:34:40;16.07;;;10.50;;
12288;SDS011;6207;49.308;7.336;2023-04-08T00:37:07;15.77;;;10.60;;
12288;SDS011;6207;49.308;7.336;2023-04-08T00:39:34;16.67;;;10.40;;
12288;SDS011;6207;49.308;7.336;2023-04-08T00:42:01;20.20;;;10.50;;
12288;SDS011;6207;49.308;7.336;2023-04-08T00:44:28;16.37;;;10.17;;
12288;SDS011;6207;49.308;7.336;2023-04-08T00:46:55;16.40;;;10.63;;
12288;SDS011;6207;49.308;7.336;2023-04-08T00:49:21;15.03;;;10.70;;
12288;SDS011;6207;49.308;7.336;2023-04-08T00:51:48;18.07;;;10.20;;
12288;SDS011;6207;49.308;7.336;2023-04-08T00:54:15;15.93;;;10.77;;
12288;SDS011;6207;49.308;7.336;2023-04-08T00:56:42;16.80;;;11.93;;
12288;SDS011;6207;49.308;7.336;2023-04-08T00:59:09;18.47;;;10.80;;
12288;SDS011;6207;49.308;7.336;2023-04-08T01:01:54;16.50;;;10.57;;
12288;SDS011;6207;49.308;7.336;2023-04-08T01:04:39;17.40;;;10.50;;
12288;SDS011;6207;49.308;7.336;2023-04-08T01:07:20;17.40;;;10.73;;
12288;SDS011;6207;49.308;7.336;2023-04-08T01:09:54;20.47;;;11.10;;
12288;SDS011;6207;49.308;7.336;2023-04-08T01:12:25;18.83;;;11.73;;
12288;SDS011;6207;49.308;7.336;2023-04-08T01:15:04;16.60;;;11.00;;
12288;SDS011;6207;49.308;7.336;2023-04-08T01:17:33;14.57;;;9.57;;
12288;SDS011;6207;49.308;7.336;2023-04-08T01:20:02;19.67;;;11.57;;
12288;SDS011;6207;49.308;7.336;2023-04-08T01:25:16;16.00;;;9.80;;
12288;SDS011;6207;49.308;7.336;2023-04-08T01:27:47;15.17;;;10.80;;
12288;SDS011;6207;49.308;7.336;2023-04-08T01:30:16;19.00;;;10.63;;
12288;SDS011;6207;49.308;7.336;2023-04-08T01:32:45;17.77;;;11.57;;
12288;SDS011;6207;49.308;7.336;2023-04-08T01:35:14;21.60;;;11.63;;
12288;SDS011;6207;49.308;7.336;2023-04-08T01:37:41;21.97;;;13.03;;
12288;SDS011;6207;49.308;7.336;2023-04-08T01:40:09;18.30;;;11.27;;
12288;SDS011;6207;49.308;7.336;2023-04-08T01:42:36;23.20;;;12.70;;
12288;SDS011;6207;49.308;7.336;2023-04-08T01:45:04;22.13;;;12.03;;
12288;SDS011;6207;49.308;7.336;2023-04-08T01:47:32;21.40;;;12.80;;
12288;SDS011;6207;49.308;7.336;2023-04-08T01:50:00;22.90;;;13.03;;
12288;SDS011;6207;49.308;7.336;2023-04-08T01:52:28;20.73;;;12.00;;
12288;SDS011;6207;49.308;7.336;2023-04-08T01:54:55;22.23;;;12.80;;
12288;SDS011;6207;49.308;7.336;2023-04-08T01:57:23;22.60;;;12.80;;
12288;SDS011;6207;49.308;7.336;2023-04-08T01:59:53;21.83;;;12.73;;
12288;SDS011;6207;49.308;7.336;2023-04-08T02:02:24;21.43;;;12.57;;
12288;SDS011;6207;49.308;7.336;2023-04-08T02:04:53;18.70;;;12.27;;
12288;SDS011;6207;49.308;7.336;2023-04-08T02:07:20;20.40;;;11.73;;
12288;SDS011;6207;49.308;7.336;2023-04-08T02:09:47;18.43;;;11.43;;
12288;SDS011;6207;49.308;7.336;2023-04-08T02:12:14;21.33;;;12.20;;
12288;SDS011;6207;49.308;7.336;2023-04-08T02:14:40;19.70;;;11.53;;
12288;SDS011;6207;49.308;7.336;2023-04-08T02:17:08;20.67;;;12.23;;
12288;SDS011;6207;49.308;7.336;2023-04-08T02:22:28;21.47;;;12.33;;
12288;SDS011;6207;49.308;7.336;2023-04-08T02:25:10;18.13;;;11.70;;
12288;SDS011;6207;49.308;7.336;2023-04-08T02:27:39;23.17;;;12.30;;
12288;SDS011;6207;49.308;7.336;2023-04-08T02:30:07;21.50;;;12.30;;
12288;SDS011;6207;49.308;7.336;2023-04-08T02:32:36;20.63;;;11.37;;
12288;SDS011;6207;49.308;7.336;2023-04-08T02:35:04;22.63;;;12.60;;
12288;SDS011;6207;49.308;7.336;2023-04-08T02:37:32;22.23;;;12.03;;
12288;SDS011;6207;49.308;7.336;2023-04-08T02:39:59;17.77;;;11.60;;
12288;SDS011;6207;49.308;7.336;2023-04-08T02:42:26;19.57;;;12.17;;
12288;SDS011;6207;49.308;7.336;2023-04-08T02:44:52;22.93;;;12.60;;
12288;SDS011;6207;49.308;7.336;2023-04-08T02:47:19;22.00;;;13.43;;
12288;SDS011;6207;49.308;7.336;2023-04-08T02:49:46;23.40;;;11.83;;
12288;SDS011;6207;49.308;7.336;2023-04-08T02:52:13;20.63;;;11.77;;
12288;SDS011;6207;49.308;7.336;2023-04-08T02:54:40;20.50;;;11.53;;
12288;SDS011;6207;49.308;7.336;2023-04-08T02:57:06;21.73;;;11.17;;
12288;SDS011;6207;49.308;7.336;2023-04-08T02:59:33;19.30;;;11.53;;
12288;SDS011;6207;49.308;7.336;2023-04-08T03:02:02;21.23;;;11.60;;
12288;SDS011;6207;49.308;7.336;2023-04-08T03:04:29;23.40;;;11.87;;
12288;SDS011;6207;49.308;7.336;2023-04-08T03:06:56;17.57;;;11.10;;
12288;SDS011;6207;49.308;7.336;2023-04-08T03:09:23;17.77;;;11.83;;
12288;SDS011;6207;49.308;7.336;2023-04-08T03:11:50;21.27;;;12.40;;
12288;SDS011;6207;49.308;7.336;2023-04-08T03:14:18;18.63;;;12.00;;
12288;SDS011;6207;49.308;7.336;2023-04-08T03:16:45;25.00;;;12.13;;
12288;SDS011;6207;49.308;7.336;2023-04-08T03:19:12;22.90;;;12.47;;
12288;SDS011;6207;49.308;7.336;2023-04-08T03:21:39;20.43;;;11.47;;
12288;SDS011;6207;49.308;7.336;2023-04-08T03:24:06;19.07;;;11.87;;
12288;SDS011;6207;49.308;7.336;2023-04-08T03:26:32;18.43;;;11.53;;
12288;SDS011;6207;49.308;7.336;2023-04-08T03:29:00;20.50;;;12.37;;
12288;SDS011;6207;49.308;7.336;2023-04-08T03:31:27;24.73;;;11.67;;
12288;SDS011;6207;49.308;7.336;2023-04-08T03:33:54;22.77;;;12.03;;
12288;SDS011;6207;49.308;7.336;2023-04-08T03:36:20;19.77;;;11.73;;
12288;SDS011;6207;49.308;7.336;2023-04-08T03:38:47;17.07;;;11.53;;
12288;SDS011;6207;49.308;7.336;2023-04-08T03:41:14;19.83;;;12.23;;
12288;SDS011;6207;49.308;7.336;2023-04-08T03:43:41;17.83;;;11.10;;
12288;SDS011;6207;49.308;7.336;2023-04-08T03:46:08;17.67;;;11.83;;
12288;SDS011;6207;49.308;7.336;2023-04-08T03:48:34;21.17;;;12.03;;
12288;SDS011;6207;49.308;7.336;2023-04-08T03:51:01;15.67;;;11.17;;
12288;SDS011;6207;49.308;7.336;2023-04-08T03:53:28;18.77;;;11.07;;
12288;SDS011;6207;49.308;7.336;2023-04-08T03:55:55;20.07;;;11.90;;
12288;SDS011;6207;49.308;7.336;2023-04-08T03:58:22;19.00;;;11.67;;
12288;SDS011;6207;49.308;7.336;2023-04-08T04:00:48;19.30;;;11.00;;
12288;SDS011;6207;49.308;7.336;2023-04-08T04:03:15;18.97;;;12.07;;
12288;SDS011;6207;49.308;7.336;2023-04-08T04:05:42;16.50;;;11.00;;
12288;SDS011;6207;49.308;7.336;2023-04-08T04:08:09;19.20;;;11.53;;
12288;SDS011;6207;49.308;7.336;2023-04-08T04:10:36;18.17;;;11.73;;
12288;SDS011;6207;49.308;7.336;2023-04-08T04:13:02;22.10;;;12.40;;
12288;SDS011;6207;49.308;7.336;2023-04-08T04:15:29;17.00;;;10.80;;
12288;SDS011;6207;49.308;7.336;2023-04-08T04:17:56;17.60;;;11.13;;
12288;SDS011;6207;49.308;7.336;2023-04-08T04:20:22;24.63;;;12.57;;
12288;SDS011;6207;49.308;7.336;2023-04-08T04:22:51;18.23;;;11.60;;
12288;SDS011;6207;49.308;7.336;2023-04-08T04:25:17;18.20;;;11.93;;
12288;SDS011;6207;49.308;7.336;2023-04-08T04:27:44;18.93;;;11.13;;
12288;SDS011;6207;49.308;7.336;2023-04-08T04:30:11;16.00;;;10.83;;
12288;SDS011;6207;49.308;7.336;2023-04-08T04:32:41;19.67;;;11.20;;
12288;SDS011;6207;49.308;7.336;2023-04-08T04:35:11;16.70;;;10.70;;
12288;SDS011;6207;49.308;7.336;2023-04-08T04:37:38;15.90;;;10.47;;
12288;SDS011;6207;49.308;7.336;2023-04-08T04:40:05;18.27;;;10.70;;
12288;SDS011;6207;49.308;7.336;2023-04-08T04:42:32;18.60;;;11.30;;
12288;SDS011;6207;49.308;7.336;2023-04-08T04:44:59;20.87;;;12.10;;
12288;SDS011;6207;49.308;7.336;2023-04-08T04:47:26;19.23;;;12.27;;
12288;SDS011;6207;49.308;7.336;2023-04-08T04:49:52;17.47;;;10.70;;
12288;SDS011;6207;49.308;7.336;2023-04-08T04:52:19;21.57;;;11.80;;
12288;SDS011;6207;49.308;7.336;2023-04-08T04:54:45;20.23;;;11.03;;
12288;SDS011;6207;49.308;7.336;2023-04-08T04:57:12;21.60;;;11.93;;
12288;SDS011;6207;49.308;7.336;2023-04-08T04:59:39;19.10;;;12.40;;
12288;SDS011;6207;49.308;7.336;2023-04-08T05:02:06;23.27;;;13.07;;
12288;SDS011;6207;49.308;7.336;2023-04-08T05:04:33;17.90;;;11.77;;
12288;SDS011;6207;49.308;7.336;2023-04-08T05:06:59;21.73;;;12.30;;
12288;SDS011;6207;49.308;7.336;2023-04-08T05:09:26;22.60;;;12.60;;
12288;SDS011;6207;49.308;7.336;2023-04-08T05:11:54;17.37;;;11.87;;
12288;SDS011;6207;49.308;7.336;2023-04-08T05:14:21;16.67;;;10.93;;
12288;SDS011;6207;49.308;7.336;2023-04-08T05:16:48;18.20;;;11.70;;
12288;SDS011;6207;49.308;7.336;2023-04-08T05:19:15;22.80;;;12.00;;
12288;SDS011;6207;49.308;7.336;2023-04-08T05:21:41;20.07;;;12.30;;
12288;SDS011;6207;49.308;7.336;2023-04-08T05:24:08;16.63;;;11.70;;
12288;SDS011;6207;49.308;7.336;2023-04-08T05:26:35;25.83;;;13.57;;
12288;SDS011;6207;49.308;7.336;2023-04-08T05:29:02;22.50;;;13.57;;
12288;SDS011;6207;49.308;7.336;2023-04-08T05:31:29;20.67;;;12.97;;
12288;SDS011;6207;49.308;7.336;2023-04-08T05:33:56;24.47;;;14.10;;
12288;SDS011;6207;49.308;7.336;2023-04-08T05:36:23;28.17;;;14.97;;
12288;SDS011;6207;49.308;7.336;2023-04-08T05:38:49;23.00;;;14.07;;
12288;SDS011;6207;49.308;7.336;2023-04-08T05:41:16;19.77;;;13.67;;
12288;SDS011;6207;49.308;7.336;2023-04-08T05:43:43;22.90;;;14.33;;
12288;SDS011;6207;49.308;7.336;2023-04-08T05:46:10;25.13;;;14.87;;
12288;SDS011;6207;49.308;7.336;2023-04-08T05:48:36;19.43;;;14.20;;
12288;SDS011;6207;49.308;7.336;2023-04-08T05:51:03;24.67;;;14.77;;
12288;SDS011;6207;49.308;7.336;2023-04-08T05:53:30;23.00;;;14.40;;
12288;SDS011;6207;49.308;7.336;2023-04-08T05:55:57;24.97;;;15.13;;
12288;SDS011;6207;49.308;7.336;2023-04-08T05:58:23;25.83;;;15.00;;
12288;SDS011;6207;49.308;7.336;2023-04-08T06:00:50;25.30;;;14.50;;
12288;SDS011;6207;49.308;7.336;2023-04-08T06:03:17;19.73;;;13.93;;
12288;SDS011;6207;49.308;7.336;2023-04-08T06:05:46;24.40;;;16.30;;
12288;SDS011;6207;49.308;7.336;2023-04-08T06:08:12;24.70;;;14.60;;
12288;SDS011;6207;49.308;7.336;2023-04-08T06:10:39;23.53;;;15.30;;
12288;SDS011;6207;49.308;7.336;2023-04-08T06:13:06;24.00;;;16.07;;
12288;SDS011;6207;49.308;7.336;2023-04-08T06:15:32;23.60;;;16.57;;
12288;SDS011;6207;49.308;7.336;2023-04-08T06:17:59;26.40;;;16.80;;
12288;SDS011;6207;49.308;7.336;2023-04-08T06:20:26;21.40;;;16.53;;
12288;SDS011;6207;49.308;7.336;2023-04-08T06:22:53;18.93;;;15.83;;
12288;SDS011;6207;49.308;7.336;2023-04-08T06:25:20;21.20;;;15.83;;
12288;SDS011;6207;49.308;7.336;2023-04-08T06:27:47;23.03;;;16.23;;
12288;SDS011;6207;49.308;7.336;2023-04-08T06:30:13;22.50;;;15.67;;
12288;SDS011;6207;49.308;7.336;2023-04-08T06:32:41;22.70;;;16.80;;
12288;SDS011;6207;49.308;7.336;2023-04-08T06:35:08;27.97;;;16.13;;
12288;SDS011;6207;49.308;7.336;2023-04-08T06:37:35;17.20;;;15.40;;
12288;SDS011;6207;49.308;7.336;2023-04-08T06:40:04;19.00;;;16.17;;
12288;SDS011;6207;49.308;7.336;2023-04-08T06:42:31;18.77;;;15.93;;
12288;SDS011;6207;49.308;7.336;2023-04-08T06:44:58;18.90;;;15.67;;
12288;SDS011;6207;49.308;7.336;2023-04-08T06:47:25;18.17;;;14.50;;
12288;SDS011;6207;49.308;7.336;2023-04-08T06:49:52;20.43;;;16.37;;
12288;SDS011;6207;49.308;7.336;2023-04-08T06:52:19;19.40;;;14.80;;
12288;SDS011;6207;49.308;7.336;2023-04-08T06:54:46;16.63;;;14.70;;
12288;SDS011;6207;49.308;7.336;2023-04-08T06:57:13;19.27;;;15.73;;
12288;SDS011;6207;49.308;7.336;2023-04-08T06:59:39;17.47;;;14.90;;
12288;SDS011;6207;49.308;7.336;2023-04-08T07:02:06;20.40;;;16.03;;
12288;SDS011;6207;49.308;7.336;2023-04-08T07:04:33;20.87;;;16.97;;
12288;SDS011;6207;49.308;7.336;2023-04-08T07:06:59;21.20;;;14.80;;
12288;SDS011;6207;49.308;7.336;2023-04-08T07:09:26;17.67;;;15.43;;
12288;SDS011;6207;49.308;7.336;2023-04-08T07:11:53;18.67;;;15.67;;
12288;SDS011;6207;49.308;7.336;2023-04-08T07:14:20;22.07;;;15.53;;
12288;SDS011;6207;49.308;7.336;2023-04-08T07:16:47;18.13;;;14.70;;
12288;SDS011;6207;49.308;7.336;2023-04-08T07:19:14;19.87;;;15.23;;
12288;SDS011;6207;49.308;7.336;2023-04-08T07:21:41;15.67;;;13.93;;
12288;SDS011;6207;49.308;7.336;2023-04-08T07:24:08;23.17;;;16.07;;
12288;SDS011;6207;49.308;7.336;2023-04-08T07:26:34;20.67;;;16.53;;
12288;SDS011;6207;49.308;7.336;2023-04-08T07:29:01;22.77;;;17.70;;
12288;SDS011;6207;49.308;7.336;2023-04-08T07:31:28;22.13;;;16.67;;
12288;SDS011;6207;49.308;7.336;2023-04-08T07:33:55;22.57;;;16.20;;
12288;SDS011;6207;49.308;7.336;2023-04-08T07:36:22;22.03;;;17.50;;
12288;SDS011;6207;49.308;7.336;2023-04-08T07:38:49;21.43;;;15.43;;
12288;SDS011;6207;49.308;7.336;2023-04-08T07:41:16;18.43;;;15.73;;
12288;SDS011;6207;49.308;7.336;2023-04-08T07:43:42;22.53;;;16.83;;
12288;SDS011;6207;49.308;7.336;2023-04-08T07:46:09;19.43;;;16.40;;
12288;SDS011;6207;49.308;7.336;2023-04-08T07:48:36;24.07;;;18.27;;
12288;SDS011;6207;49.308;7.336;2023-04-08T07:51:04;25.10;;;19.60;;
12288;SDS011;6207;49.308;7.336;2023-04-08T07:53:37;21.47;;;16.77;;
12288;SDS011;6207;49.308;7.336;2023-04-08T07:56:13;24.00;;;17.43;;
12288;SDS011;6207;49.308;7.336;2023-04-08T07:58:43;19.83;;;16.97;;
12288;SDS011;6207;49.308;7.336;2023-04-08T08:01:13;22.93;;;16.37;;
12288;SDS011;6207;49.308;7.336;2023-04-08T08:03:41;20.17;;;17.13;;
12288;SDS011;6207;49.308;7.336;2023-04-08T08:06:09;19.57;;;17.43;;
12288;SDS011;6207;49.308;7.336;2023-04-08T08:08:36;21.03;;;16.90;;
12288;SDS011;6207;49.308;7.336;2023-04-08T08:11:03;23.33;;;17.63;;
12288;SDS011;6207;49.308;7.336;2023-04-08T08:13:30;24.50;;;18.10;;
12288;SDS011;6207;49.308;7.336;2023-04-08T08:15:57;22.10;;;18.07;;
12288;SDS011;6207;49.308;7.336;2023-04-08T08:18:24;21.83;;;18.10;;
12288;SDS011;6207;49.308;7.336;2023-04-08T08:20:54;18.57;;;16.67;;
12288;SDS011;6207;49.308;7.336;2023-04-08T08:23:21;19.27;;;17.20;;
12288;SDS011;6207;49.308;7.336;2023-04-08T08:25:48;21.53;;;19.47;;
12288;SDS011;6207;49.308;7.336;2023-04-08T08:28:15;18.33;;;16.63;;
12288;SDS011;6207;49.308;7.336;2023-04-08T08:30:42;21.57;;;19.33;;
12288;SDS011;6207;49.308;7.336;2023-04-08T08:33:09;19.60;;;16.90;;
12288;SDS011;6207;49.308;7.336;2023-04-08T08:35:35;18.07;;;16.27;;
12288;SDS011;6207;49.308;7.336;2023-04-08T08:38:02;19.40;;;17.37;;
12288;SDS011;6207;49.308;7.336;2023-04-08T08:40:29;20.47;;;18.40;;
12288;SDS011;6207;49.308;7.336;2023-04-08T08:42:56;18.80;;;17.00;;
12288;SDS011;6207;49.308;7.336;2023-04-08T08:45:24;20.13;;;17.97;;
12288;SDS011;6207;49.308;7.336;2023-04-08T08:47:51;20.10;;;17.87;;
12288;SDS011;6207;49.308;7.336;2023-04-08T08:50:18;16.93;;;15.43;;
12288;SDS011;6207;49.308;7.336;2023-04-08T08:52:51;19.80;;;17.33;;
12288;SDS011;6207;49.308;7.336;2023-04-08T08:55:20;18.43;;;16.63;;
12288;SDS011;6207;49.308;7.336;2023-04-08T08:58:07;20.60;;;18.60;;
12288;SDS011;6207;49.308;7.336;2023-04-08T09:00:34;19.87;;;17.77;;
12288;SDS011;6207;49.308;7.336;2023-04-08T09:03:16;19.90;;;17.83;;
12288;SDS011;6207;49.308;7.336;2023-04-08T09:05:51;20.40;;;18.40;;
12288;SDS011;6207;49.308;7.336;2023-04-08T09:10:53;19.33;;;17.57;;
12288;SDS011;6207;49.308;7.336;2023-04-08T09:13:21;20.40;;;18.60;;
12288;SDS011;6207;49.308;7.336;2023-04-08T09:15:59;19.47;;;17.60;;
12288;SDS011;6207;49.308;7.336;2023-04-08T09:18:28;20.23;;;18.13;;
12288;SDS011;6207;49.308;7.336;2023-04-08T09:20:56;20.17;;;18.00;;
12288;SDS011;6207;49.308;7.336;2023-04-08T09:23:25;17.60;;;16.03;;
12288;SDS011;6207;49.308;7.336;2023-04-08T09:26:12;19.13;;;17.10;;
12288;SDS011;6207;49.308;7.336;2023-04-08T09:28:56;20.33;;;18.23;;
12288;SDS011;6207;49.308;7.336;2023-04-08T09:31:43;20.10;;;18.20;;
12288;SDS011;6207;49.308;7.336;2023-04-08T09:34:13;20.53;;;18.77;;
12288;SDS011;6207;49.308;7.336;2023-04-08T09:36:41;20.80;;;18.73;;
12288;SDS011;6207;49.308;7.336;2023-04-08T09:39:09;20.05;;;18.35;;
12288;SDS011;6207;49.308;7.336;2023-04-08T09:41:37;20.30;;;18.52;;
12288;SDS011;6207;49.308;7.336;2023-04-08T09:44:05;20.00;;;18.27;;
12288;SDS011;6207;49.308;7.336;2023-04-08T09:49:27;20.50;;;18.75;;
12288;SDS011;6207;49.308;7.336;2023-04-08T09:52:07;20.27;;;18.55;;
12288;SDS011;6207;49.308;7.336;2023-04-08T10:00:03;19.98;;;18.15;;
12288;SDS011;6207;49.308;7.336;2023-04-08T10:02:38;20.10;;;18.30;;
12288;SDS011;6207;49.308;7.336;2023-04-08T10:05:13;20.87;;;18.90;;
12288;SDS011;6207;49.308;7.336;2023-04-08T10:07:42;20.17;;;18.58;;
12288;SDS011;6207;49.308;7.336;2023-04-08T10:10:09;20.20;;;18.27;;
12288;SDS011;6207;49.308;7.336;2023-04-08T10:12:36;21.55;;;19.63;;
12288;SDS011;6207;49.308;7.336;2023-04-08T10:23:02;20.03;;;18.43;;
12288;SDS011;6207;49.308;7.336;2023-04-08T10:25:33;19.75;;;17.95;;
12288;SDS011;6207;49.308;7.336;2023-04-08T10:28:23;20.23;;;18.52;;
12288;SDS011;6207;49.308;7.336;2023-04-08T10:30:50;19.45;;;17.85;;
12288;SDS011;6207;49.308;7.336;2023-04-08T10:33:20;19.52;;;18.02;;
12288;SDS011;6207;49.308;7.336;2023-04-08T10:35:48;21.27;;;19.65;;
12288;SDS011;6207;49.308;7.336;2023-04-08T10:38:18;17.90;;;16.47;;
12288;SDS011;6207;49.308;7.336;2023-04-08T10:40:46;19.75;;;18.23;;
12288;SDS011;6207;49.308;7.336;2023-04-08T10:43:14;20.87;;;19.13;;
12288;SDS011;6207;49.308;7.336;2023-04-08T10:45:42;20.90;;;19.10;;
12288;SDS011;6207;49.308;7.336;2023-04-08T10:48:20;20.20;;;18.50;;
12288;SDS011;6207;49.308;7.336;2023-04-08T10:50:54;20.67;;;18.90;;
12288;SDS011;6207;49.308;7.336;2023-04-08T10:53:26;19.48;;;17.80;;
12288;SDS011;6207;49.308;7.336;2023-04-08T10:56:07;19.98;;;18.25;;
12288;SDS011;6207;49.308;7.336;2023-04-08T10:58:46;21.30;;;19.38;;
12288;SDS011;6207;49.308;7.336;2023-04-08T11:01:14;18.80;;;17.30;;
12288;SDS011;6207;49.308;7.336;2023-04-08T11:03:41;19.17;;;17.58;;
12288;SDS011;6207;49.308;7.336;2023-04-08T11:06:08;20.27;;;18.77;;
12288;SDS011;6207;49.308;7.336;2023-04-08T11:08:36;21.93;;;19.33;;
12288;SDS011;6207;49.308;7.336;2023-04-08T11:11:04;19.83;;;18.23;;
12288;SDS011;6207;49.308;7.336;2023-04-08T11:13:37;19.03;;;17.57;;
12288;SDS011;6207;49.308;7.336;2023-04-08T11:16:13;19.00;;;17.50;;
12288;SDS011;6207;49.308;7.336;2023-04-08T11:18:43;19.00;;;17.50;;
12288;SDS011;6207;49.308;7.336;2023-04-08T11:21:11;17.47;;;16.13;;
12288;SDS011;6207;49.308;7.336;2023-04-08T11:23:38;18.47;;;16.97;;
12288;SDS011;6207;49.308;7.336;2023-04-08T11:26:04;19.63;;;17.80;;
12288;SDS011;6207;49.308;7.336;2023-04-08T11:28:31;19.50;;;17.90;;
12288;SDS011;6207;49.308;7.336;2023-04-08T11:31:00;21.00;;;19.30;;
12288;SDS011;6207;49.308;7.336;2023-04-08T11:33:31;18.87;;;17.33;;
12288;SDS011;6207;49.308;7.336;2023-04-08T11:35:59;18.40;;;16.90;;
12288;SDS011;6207;49.308;7.336;2023-04-08T11:38:29;19.80;;;18.07;;
12288;SDS011;6207;49.308;7.336;2023-04-08T11:40:56;19.07;;;17.40;;
12288;SDS011;6207;49.308;7.336;2023-04-08T11:43:24;17.17;;;15.97;;
12288;SDS011;6207;49.308;7.336;2023-04-08T11:45:51;21.43;;;19.60;;
12288;SDS011;6207;49.308;7.336;2023-04-08T11:48:18;19.13;;;17.63;;
12288;SDS011;6207;49.308;7.336;2023-04-08T11:50:45;19.33;;;17.83;;
12288;SDS011;6207;49.308;7.336;2023-04-08T11:53:18;20.40;;;18.60;;
12288;SDS011;6207;49.308;7.336;2023-04-08T11:55:47;18.67;;;17.13;;
12288;SDS011;6207;49.308;7.336;2023-04-08T11:58:14;18.13;;;16.55;;
12288;SDS011;6207;49.308;7.336;2023-04-08T12:00:41;17.73;;;16.35;;
12288;SDS011;6207;49.308;7.336;2023-04-08T12:03:09;18.73;;;17.17;;
12288;SDS011;6207;49.308;7.336;2023-04-08T12:05:36;16.48;;;15.27;;
12288;SDS011;6207;49.308;7.336;2023-04-08T12:08:03;18.93;;;17.23;;
12288;SDS011;6207;49.308;7.336;2023-04-08T12:10:30;18.57;;;17.17;;
12288;SDS011;6207;49.308;7.336;2023-04-08T12:12:56;18.93;;;17.43;;
12288;SDS011;6207;49.308;7.336;2023-04-08T12:15:23;20.13;;;18.43;;
12288;SDS011;6207;49.308;7.336;2023-04-08T12:17:50;19.53;;;17.97;;
12288;SDS011;6207;49.308;7.336;2023-04-08T12:20:16;19.07;;;17.63;;
12288;SDS011;6207;49.308;7.336;2023-04-08T12:22:43;19.23;;;17.63;;
12288;SDS011;6207;49.308;7.336;2023-04-08T12:25:10;19.03;;;17.43;;
12288;SDS011;6207;49.308;7.336;2023-04-08T12:27:37;16.63;;;15.37;;
12288;SDS011;6207;49.308;7.336;2023-04-08T12:30:04;16.40;;;15.20;;
12288;SDS011;6207;49.308;7.336;2023-04-08T12:32:31;18.57;;;16.97;;
12288;SDS011;6207;49.308;7.336;2023-04-08T12:34:58;18.73;;;17.23;;
12288;SDS011;6207;49.308;7.336;2023-04-08T12:37:25;19.40;;;17.90;;
12288;SDS011;6207;49.308;7.336;2023-04-08T12:39:52;18.57;;;17.07;;
12288;SDS011;6207;49.308;7.336;2023-04-08T12:42:19;17.50;;;16.10;;
12288;SDS011;6207;49.308;7.336;2023-04-08T12:44:46;20.50;;;18.80;;
12288;SDS011;6207;49.308;7.336;2023-04-08T12:47:13;18.67;;;17.17;;
12288;SDS011;6207;49.308;7.336;2023-04-08T12:49:39;19.97;;;18.37;;
12288;SDS011;6207;49.308;7.336;2023-04-08T12:52:09;21.13;;;19.53;;
12288;SDS011;6207;49.308;7.336;2023-04-08T12:54:36;19.33;;;17.83;;
12288;SDS011;6207;49.308;7.336;2023-04-08T12:57:03;20.03;;;18.03;;
12288;SDS011;6207;49.308;7.336;2023-04-08T12:59:29;18.40;;;16.70;;
12288;SDS011;6207;49.308;7.336;2023-04-08T13:01:58;19.43;;;17.77;;
12288;SDS011;6207;49.308;7.336;2023-04-08T13:04:25;19.17;;;17.50;;
12288;SDS011;6207;49.308;7.336;2023-04-08T13:06:52;20.57;;;18.60;;
12288;SDS011;6207;49.308;7.336;2023-04-08T13:09:18;18.27;;;16.67;;
12288;SDS011;6207;49.308;7.336;2023-04-08T13:11:46;20.67;;;18.53;;
12288;SDS011;6207;49.308;7.336;2023-04-08T13:14:12;19.23;;;17.53;;
12288;SDS011;6207;49.308;7.336;2023-04-08T13:16:39;19.03;;;17.33;;
12288;SDS011;6207;49.308;7.336;2023-04-08T13:19:06;18.90;;;17.30;;
12288;SDS011;6207;49.308;7.336;2023-04-08T13:21:32;18.97;;;17.13;;
12288;SDS011;6207;49.308;7.336;2023-04-08T13:23:59;20.50;;;18.80;;
12288;SDS011;6207;49.308;7.336;2023-04-08T13:26:26;19.30;;;17.42;;
12288;SDS011;6207;49.308;7.336;2023-04-08T13:28:53;18.97;;;17.40;;
12288;SDS011;6207;49.308;7.336;2023-04-08T13:31:23;18.63;;;17.13;;
12288;SDS011;6207;49.308;7.336;2023-04-08T13:33:50;19.23;;;17.33;;
12288;SDS011;6207;49.308;7.336;2023-04-08T13:36:20;19.17;;;17.35;;
12288;SDS011;6207;49.308;7.336;2023-04-08T13:38:47;18.15;;;16.52;;
12288;SDS011;6207;49.308;7.336;2023-04-08T13:41:14;18.98;;;17.38;;
12288;SDS011;6207;49.308;7.336;2023-04-08T13:43:40;19.02;;;17.38;;
12288;SDS011;6207;49.308;7.336;2023-04-08T13:46:08;19.50;;;17.93;;
12288;SDS011;6207;49.308;7.336;2023-04-08T13:48:35;20.07;;;18.47;;
12288;SDS011;6207;49.308;7.336;2023-04-08T13:51:01;20.10;;;18.30;;
12288;SDS011;6207;49.308;7.336;2023-04-08T13:53:28;19.23;;;17.63;;
12288;SDS011;6207;49.308;7.336;2023-04-08T13:55:55;19.27;;;17.60;;
12288;SDS011;6207;49.308;7.336;2023-04-08T13:58:24;18.17;;;16.67;;
12288;SDS011;6207;49.308;7.336;2023-04-08T14:00:51;17.83;;;16.43;;
12288;SDS011;6207;49.308;7.336;2023-04-08T14:03:18;18.57;;;17.07;;
12288;SDS011;6207;49.308;7.336;2023-04-08T14:05:45;17.50;;;16.17;;
12288;SDS011;6207;49.308;7.336;2023-04-08T14:08:12;16.90;;;15.40;;
12288;SDS011;6207;49.308;7.336;2023-04-08T14:10:39;17.07;;;15.77;;
12288;SDS011;6207;49.308;7.336;2023-04-08T14:13:07;18.00;;;16.60;;
12288;SDS011;6207;49.308;7.336;2023-04-08T14:15:34;17.05;;;15.75;;
12288;SDS011;6207;49.308;7.336;2023-04-08T14:18:01;17.25;;;16.00;;
12288;SDS011;6207;49.308;7.336;2023-04-08T14:20:28;17.30;;;15.97;;
12288;SDS011;6207;49.308;7.336;2023-04-08T14:22:55;14.85;;;13.75;;
12288;SDS011;6207;49.308;7.336;2023-04-08T14:25:22;16.55;;;15.25;;
12288;SDS011;6207;49.308;7.336;2023-04-08T14:27:49;16.47;;;15.17;;
12288;SDS011;6207;49.308;7.336;2023-04-08T14:30:24;15.43;;;14.23;;
12288;SDS011;6207;49.308;7.336;2023-04-08T14:32:52;17.47;;;16.07;;
12288;SDS011;6207;49.308;7.336;2023-04-08T14:35:19;16.80;;;15.37;;
12288;SDS011;6207;49.308;7.336;2023-04-08T14:37:46;15.60;;;14.40;;
12288;SDS011;6207;49.308;7.336;2023-04-08T14:40:13;15.00;;;13.70;;
12288;SDS011;6207;49.308;7.336;2023-04-08T14:42:40;15.75;;;14.55;;
12288;SDS011;6207;49.308;7.336;2023-04-08T14:45:07;17.43;;;16.03;;
12288;SDS011;6207;49.308;7.336;2023-04-08T14:47:34;14.70;;;13.60;;
12288;SDS011;6207;49.308;7.336;2023-04-08T14:50:01;14.27;;;13.33;;
12288;SDS011;6207;49.308;7.336;2023-04-08T14:52:27;14.67;;;13.60;;
12288;SDS011;6207;49.308;7.336;2023-04-08T14:54:54;14.10;;;13.10;;
12288;SDS011;6207;49.308;7.336;2023-04-08T14:57:21;12.53;;;11.83;;
12288;SDS011;6207;49.308;7.336;2023-04-08T14:59:48;13.63;;;12.73;;
12288;SDS011;6207;49.308;7.336;2023-04-08T15:02:14;13.30;;;12.50;;
12288;SDS011;6207;49.308;7.336;2023-04-08T15:04:41;13.27;;;12.32;;